sensor_id;sensor_type;location;lat;lon;timestamp;P1;durP1;ratioP1;P2;durP2;ratioP2
12818;SDS011;6474;53.474;9.894;2022-09-27T00:01:31;0.37;;;0.37;;
12818;SDS011;6474;53.474;9.894;2022-09-27T00:03:59;0.80;;;0.80;;
12818;SDS011;6474;53.474;9.894;2022-09-27T00:06:29;0.50;;;0.50;;
12818;SDS011;6474;53.474;9.894;2022-09-27T00:09:01;0.50;;;0.50;;
12818;SDS011;6474;53.474;9.894;2022-09-27T00:11:31;0.47;;;0.47;;
12818;SDS011;6474;53.474;9.894;2022-09-27T00:14:00;0.50;;;0.50;;
12818;SDS011;6474;53.474;9.894;2022-09-27T00:16:30;0.70;;;0.70;;
12818;SDS011;6474;53.474;9.894;2022-09-27T00:19:00;0.50;;;0.50;;
12818;SDS011;6474;53.474;9.894;2022-09-27T00:21:30;0.53;;;0.53;;
12818;SDS011;6474;53.474;9.894;2022-09-27T00:23:58;0.60;;;0.60;;
12818;SDS011;6474;53.474;9.894;2022-09-27T00:26:26;0.40;;;0.40;;
12818;SDS011;6474;53.474;9.894;2022-09-27T00:28:55;0.60;;;0.60;;
12818;SDS011;6474;53.474;9.894;2022-09-27T00:31:23;0.53;;;0.53;;
12818;SDS011;6474;53.474;9.894;2022-09-27T00:33:55;0.57;;;0.50;;
12818;SDS011;6474;53.474;9.894;2022-09-27T00:36:24;0.70;;;0.70;;
12818;SDS011;6474;53.474;9.894;2022-09-27T00:38:55;0.70;;;0.70;;
12818;SDS011;6474;53.474;9.894;2022-09-27T00:41:25;0.30;;;0.30;;
12818;SDS011;6474;53.474;9.894;2022-09-27T00:43:55;0.73;;;0.53;;
12818;SDS011;6474;53.474;9.894;2022-09-27T00:46:25;0.50;;;0.50;;
12818;SDS011;6474;53.474;9.894;2022-09-27T00:49:02;0.40;;;0.40;;
12818;SDS011;6474;53.474;9.894;2022-09-27T00:51:34;1.23;;;0.40;;
12818;SDS011;6474;53.474;9.894;2022-09-27T00:54:06;0.37;;;0.37;;
12818;SDS011;6474;53.474;9.894;2022-09-27T00:56:38;0.30;;;0.30;;
12818;SDS011;6474;53.474;9.894;2022-09-27T00:59:08;0.40;;;0.40;;
12818;SDS011;6474;53.474;9.894;2022-09-27T01:01:39;0.30;;;0.30;;
12818;SDS011;6474;53.474;9.894;2022-09-27T01:04:08;0.40;;;0.40;;
12818;SDS011;6474;53.474;9.894;2022-09-27T01:06:37;0.27;;;0.27;;
12818;SDS011;6474;53.474;9.894;2022-09-27T01:09:07;0.40;;;0.40;;
12818;SDS011;6474;53.474;9.894;2022-09-27T01:11:37;0.40;;;0.40;;
12818;SDS011;6474;53.474;9.894;2022-09-27T01:14:17;0.40;;;0.40;;
12818;SDS011;6474;53.474;9.894;2022-09-27T01:17:05;0.40;;;0.40;;
12818;SDS011;6474;53.474;9.894;2022-09-27T01:19:59;0.20;;;0.20;;
12818;SDS011;6474;53.474;9.894;2022-09-27T01:22:46;0.30;;;0.30;;
12818;SDS011;6474;53.474;9.894;2022-09-27T01:25:31;0.70;;;0.27;;
12818;SDS011;6474;53.474;9.894;2022-09-27T01:28:18;0.40;;;0.40;;
12818;SDS011;6474;53.474;9.894;2022-09-27T01:30:52;0.30;;;0.30;;
12818;SDS011;6474;53.474;9.894;2022-09-27T01:33:31;0.77;;;0.40;;
12818;SDS011;6474;53.474;9.894;2022-09-27T01:38:56;0.33;;;0.33;;
12818;SDS011;6474;53.474;9.894;2022-09-27T01:41:47;0.33;;;0.33;;
12818;SDS011;6474;53.474;9.894;2022-09-27T01:44:27;0.20;;;0.20;;
12818;SDS011;6474;53.474;9.894;2022-09-27T01:47:00;0.47;;;0.47;;
12818;SDS011;6474;53.474;9.894;2022-09-27T01:49:31;0.20;;;0.20;;
12818;SDS011;6474;53.474;9.894;2022-09-27T01:52:06;0.50;;;0.50;;
12818;SDS011;6474;53.474;9.894;2022-09-27T01:54:36;0.37;;;0.37;;
12818;SDS011;6474;53.474;9.894;2022-09-27T01:57:09;0.30;;;0.30;;
12818;SDS011;6474;53.474;9.894;2022-09-27T01:59:43;0.40;;;0.40;;
12818;SDS011;6474;53.474;9.894;2022-09-27T02:02:15;0.40;;;0.40;;
12818;SDS011;6474;53.474;9.894;2022-09-27T02:04:45;0.20;;;0.20;;
12818;SDS011;6474;53.474;9.894;2022-09-27T02:07:17;0.27;;;0.27;;
12818;SDS011;6474;53.474;9.894;2022-09-27T02:09:49;0.33;;;0.33;;
12818;SDS011;6474;53.474;9.894;2022-09-27T02:12:20;0.50;;;0.20;;
12818;SDS011;6474;53.474;9.894;2022-09-27T02:14:52;0.37;;;0.37;;
12818;SDS011;6474;53.474;9.894;2022-09-27T02:17:24;0.37;;;0.37;;
12818;SDS011;6474;53.474;9.894;2022-09-27T02:20:02;0.40;;;0.40;;
12818;SDS011;6474;53.474;9.894;2022-09-27T02:22:37;0.30;;;0.30;;
12818;SDS011;6474;53.474;9.894;2022-09-27T02:25:12;1.43;;;0.43;;
12818;SDS011;6474;53.474;9.894;2022-09-27T02:27:47;0.40;;;0.40;;
12818;SDS011;6474;53.474;9.894;2022-09-27T02:30:21;0.20;;;0.20;;
12818;SDS011;6474;53.474;9.894;2022-09-27T02:32:50;0.33;;;0.33;;
12818;SDS011;6474;53.474;9.894;2022-09-27T02:35:18;0.30;;;0.30;;
12818;SDS011;6474;53.474;9.894;2022-09-27T02:37:50;0.30;;;0.30;;
12818;SDS011;6474;53.474;9.894;2022-09-27T02:40:18;0.30;;;0.30;;
12818;SDS011;6474;53.474;9.894;2022-09-27T02:42:46;0.30;;;0.30;;
12818;SDS011;6474;53.474;9.894;2022-09-27T02:45:15;0.30;;;0.30;;
12818;SDS011;6474;53.474;9.894;2022-09-27T02:47:50;0.30;;;0.30;;
12818;SDS011;6474;53.474;9.894;2022-09-27T02:50:34;0.47;;;0.47;;
12818;SDS011;6474;53.474;9.894;2022-09-27T02:53:25;0.50;;;0.50;;
12818;SDS011;6474;53.474;9.894;2022-09-27T02:56:06;0.30;;;0.30;;
12818;SDS011;6474;53.474;9.894;2022-09-27T02:58:44;0.33;;;0.33;;
12818;SDS011;6474;53.474;9.894;2022-09-27T03:01:24;0.33;;;0.33;;
12818;SDS011;6474;53.474;9.894;2022-09-27T03:04:01;0.40;;;0.40;;
12818;SDS011;6474;53.474;9.894;2022-09-27T03:06:33;2.27;;;0.40;;
12818;SDS011;6474;53.474;9.894;2022-09-27T03:09:04;0.20;;;0.20;;
12818;SDS011;6474;53.474;9.894;2022-09-27T03:11:31;0.30;;;0.30;;
12818;SDS011;6474;53.474;9.894;2022-09-27T03:13:59;0.33;;;0.33;;
12818;SDS011;6474;53.474;9.894;2022-09-27T03:16:34;0.20;;;0.20;;
12818;SDS011;6474;53.474;9.894;2022-09-27T03:19:04;0.30;;;0.30;;
12818;SDS011;6474;53.474;9.894;2022-09-27T03:21:31;3.73;;;0.37;;
12818;SDS011;6474;53.474;9.894;2022-09-27T03:24:00;0.20;;;0.20;;
12818;SDS011;6474;53.474;9.894;2022-09-27T03:26:28;0.50;;;0.50;;
12818;SDS011;6474;53.474;9.894;2022-09-27T03:28:56;0.23;;;0.23;;
12818;SDS011;6474;53.474;9.894;2022-09-27T03:31:24;0.20;;;0.20;;
12818;SDS011;6474;53.474;9.894;2022-09-27T03:33:52;0.30;;;0.30;;
12818;SDS011;6474;53.474;9.894;2022-09-27T03:36:21;0.30;;;0.30;;
12818;SDS011;6474;53.474;9.894;2022-09-27T03:38:49;0.30;;;0.30;;
12818;SDS011;6474;53.474;9.894;2022-09-27T03:41:16;0.37;;;0.37;;
12818;SDS011;6474;53.474;9.894;2022-09-27T03:43:44;0.30;;;0.30;;
12818;SDS011;6474;53.474;9.894;2022-09-27T03:46:12;0.33;;;0.33;;
12818;SDS011;6474;53.474;9.894;2022-09-27T03:48:40;0.30;;;0.30;;
12818;SDS011;6474;53.474;9.894;2022-09-27T03:51:08;0.27;;;0.27;;
12818;SDS011;6474;53.474;9.894;2022-09-27T03:53:38;0.20;;;0.20;;
12818;SDS011;6474;53.474;9.894;2022-09-27T03:56:07;0.30;;;0.30;;
12818;SDS011;6474;53.474;9.894;2022-09-27T03:58:35;0.30;;;0.30;;
12818;SDS011;6474;53.474;9.894;2022-09-27T04:01:03;0.27;;;0.27;;
12818;SDS011;6474;53.474;9.894;2022-09-27T04:03:31;0.33;;;0.33;;
12818;SDS011;6474;53.474;9.894;2022-09-27T04:06:00;0.30;;;0.30;;
12818;SDS011;6474;53.474;9.894;2022-09-27T04:08:27;0.43;;;0.43;;
12818;SDS011;6474;53.474;9.894;2022-09-27T04:10:57;0.50;;;0.50;;
12818;SDS011;6474;53.474;9.894;2022-09-27T04:13:25;0.30;;;0.30;;
12818;SDS011;6474;53.474;9.894;2022-09-27T04:15:52;0.30;;;0.30;;
12818;SDS011;6474;53.474;9.894;2022-09-27T04:18:20;0.40;;;0.40;;
12818;SDS011;6474;53.474;9.894;2022-09-27T04:20:48;0.23;;;0.23;;
12818;SDS011;6474;53.474;9.894;2022-09-27T04:23:16;0.60;;;0.60;;
12818;SDS011;6474;53.474;9.894;2022-09-27T04:25:45;0.43;;;0.43;;
12818;SDS011;6474;53.474;9.894;2022-09-27T04:28:15;0.60;;;0.60;;
12818;SDS011;6474;53.474;9.894;2022-09-27T04:30:44;0.50;;;0.50;;
12818;SDS011;6474;53.474;9.894;2022-09-27T04:33:11;0.50;;;0.50;;
12818;SDS011;6474;53.474;9.894;2022-09-27T04:35:39;0.70;;;0.70;;
12818;SDS011;6474;53.474;9.894;2022-09-27T04:38:26;0.73;;;0.73;;
12818;SDS011;6474;53.474;9.894;2022-09-27T04:40:53;1.00;;;1.00;;
12818;SDS011;6474;53.474;9.894;2022-09-27T04:43:23;1.10;;;1.10;;
12818;SDS011;6474;53.474;9.894;2022-09-27T04:45:51;1.00;;;1.00;;
12818;SDS011;6474;53.474;9.894;2022-09-27T04:48:19;1.53;;;1.47;;
12818;SDS011;6474;53.474;9.894;2022-09-27T04:50:47;0.93;;;0.93;;
12818;SDS011;6474;53.474;9.894;2022-09-27T04:53:22;1.07;;;1.07;;
12818;SDS011;6474;53.474;9.894;2022-09-27T04:55:51;1.23;;;1.23;;
12818;SDS011;6474;53.474;9.894;2022-09-27T04:58:19;1.10;;;1.10;;
12818;SDS011;6474;53.474;9.894;2022-09-27T05:00:48;1.27;;;1.27;;
12818;SDS011;6474;53.474;9.894;2022-09-27T05:03:19;1.53;;;1.43;;
12818;SDS011;6474;53.474;9.894;2022-09-27T05:05:47;1.50;;;1.50;;
12818;SDS011;6474;53.474;9.894;2022-09-27T05:08:15;1.60;;;1.60;;
12818;SDS011;6474;53.474;9.894;2022-09-27T05:10:43;2.00;;;2.00;;
12818;SDS011;6474;53.474;9.894;2022-09-27T05:13:11;1.50;;;1.50;;
12818;SDS011;6474;53.474;9.894;2022-09-27T05:15:38;1.63;;;1.63;;
12818;SDS011;6474;53.474;9.894;2022-09-27T05:18:08;2.77;;;1.83;;
12818;SDS011;6474;53.474;9.894;2022-09-27T05:20:36;1.67;;;1.67;;
12818;SDS011;6474;53.474;9.894;2022-09-27T05:23:04;1.93;;;1.93;;
12818;SDS011;6474;53.474;9.894;2022-09-27T05:25:32;2.43;;;2.33;;
12818;SDS011;6474;53.474;9.894;2022-09-27T05:28:01;5.97;;;2.73;;
12818;SDS011;6474;53.474;9.894;2022-09-27T05:30:29;2.10;;;2.00;;
12818;SDS011;6474;53.474;9.894;2022-09-27T05:32:57;3.13;;;2.77;;
12818;SDS011;6474;53.474;9.894;2022-09-27T05:35:26;2.80;;;2.70;;
12818;SDS011;6474;53.474;9.894;2022-09-27T05:37:55;2.27;;;2.17;;
12818;SDS011;6474;53.474;9.894;2022-09-27T05:40:23;2.80;;;2.60;;
12818;SDS011;6474;53.474;9.894;2022-09-27T05:43:06;3.80;;;3.53;;
12818;SDS011;6474;53.474;9.894;2022-09-27T05:45:34;3.57;;;3.37;;
12818;SDS011;6474;53.474;9.894;2022-09-27T05:48:03;2.80;;;2.70;;
12818;SDS011;6474;53.474;9.894;2022-09-27T05:50:32;3.13;;;3.03;;
12818;SDS011;6474;53.474;9.894;2022-09-27T05:53:00;3.77;;;3.40;;
12818;SDS011;6474;53.474;9.894;2022-09-27T05:55:27;3.33;;;2.70;;
12818;SDS011;6474;53.474;9.894;2022-09-27T05:57:56;2.63;;;2.43;;
12818;SDS011;6474;53.474;9.894;2022-09-27T06:00:25;2.47;;;2.37;;
12818;SDS011;6474;53.474;9.894;2022-09-27T06:02:54;2.83;;;2.67;;
12818;SDS011;6474;53.474;9.894;2022-09-27T06:05:25;2.57;;;2.37;;
12818;SDS011;6474;53.474;9.894;2022-09-27T06:07:58;2.87;;;2.77;;
12818;SDS011;6474;53.474;9.894;2022-09-27T06:10:27;2.87;;;2.67;;
12818;SDS011;6474;53.474;9.894;2022-09-27T06:12:59;2.33;;;1.90;;
12818;SDS011;6474;53.474;9.894;2022-09-27T06:15:28;2.17;;;2.07;;
12818;SDS011;6474;53.474;9.894;2022-09-27T06:18:01;1.60;;;1.60;;
12818;SDS011;6474;53.474;9.894;2022-09-27T06:20:30;1.87;;;1.73;;
12818;SDS011;6474;53.474;9.894;2022-09-27T06:23:04;2.00;;;2.00;;
12818;SDS011;6474;53.474;9.894;2022-09-27T06:25:33;2.10;;;1.90;;
12818;SDS011;6474;53.474;9.894;2022-09-27T06:28:01;1.30;;;1.30;;
12818;SDS011;6474;53.474;9.894;2022-09-27T06:30:30;1.30;;;1.30;;
12818;SDS011;6474;53.474;9.894;2022-09-27T06:32:59;1.20;;;1.20;;
12818;SDS011;6474;53.474;9.894;2022-09-27T06:35:28;1.37;;;1.37;;
12818;SDS011;6474;53.474;9.894;2022-09-27T06:37:56;0.77;;;0.77;;
12818;SDS011;6474;53.474;9.894;2022-09-27T06:40:26;1.10;;;1.10;;
12818;SDS011;6474;53.474;9.894;2022-09-27T06:42:58;0.73;;;0.73;;
12818;SDS011;6474;53.474;9.894;2022-09-27T06:45:28;0.70;;;0.70;;
12818;SDS011;6474;53.474;9.894;2022-09-27T06:47:56;0.73;;;0.73;;
12818;SDS011;6474;53.474;9.894;2022-09-27T06:50:27;0.67;;;0.67;;
12818;SDS011;6474;53.474;9.894;2022-09-27T06:52:55;0.70;;;0.70;;
12818;SDS011;6474;53.474;9.894;2022-09-27T06:55:23;0.77;;;0.77;;
12818;SDS011;6474;53.474;9.894;2022-09-27T06:57:53;0.70;;;0.70;;
12818;SDS011;6474;53.474;9.894;2022-09-27T07:00:38;0.50;;;0.50;;
12818;SDS011;6474;53.474;9.894;2022-09-27T07:03:07;0.60;;;0.60;;
12818;SDS011;6474;53.474;9.894;2022-09-27T07:05:36;0.40;;;0.40;;
12818;SDS011;6474;53.474;9.894;2022-09-27T07:08:04;1.97;;;0.50;;
12818;SDS011;6474;53.474;9.894;2022-09-27T07:10:34;1.80;;;0.27;;
12818;SDS011;6474;53.474;9.894;2022-09-27T07:13:02;0.20;;;0.20;;
12818;SDS011;6474;53.474;9.894;2022-09-27T07:15:32;0.40;;;0.40;;
12818;SDS011;6474;53.474;9.894;2022-09-27T07:18:01;0.40;;;0.40;;
12818;SDS011;6474;53.474;9.894;2022-09-27T07:20:31;0.40;;;0.40;;
12818;SDS011;6474;53.474;9.894;2022-09-27T07:23:02;0.33;;;0.33;;
12818;SDS011;6474;53.474;9.894;2022-09-27T07:25:31;0.43;;;0.43;;
12818;SDS011;6474;53.474;9.894;2022-09-27T07:28:01;0.60;;;0.60;;
12818;SDS011;6474;53.474;9.894;2022-09-27T07:30:30;0.30;;;0.30;;
12818;SDS011;6474;53.474;9.894;2022-09-27T07:32:58;0.20;;;0.20;;
12818;SDS011;6474;53.474;9.894;2022-09-27T07:35:28;0.20;;;0.20;;
12818;SDS011;6474;53.474;9.894;2022-09-27T07:37:56;0.40;;;0.40;;
12818;SDS011;6474;53.474;9.894;2022-09-27T07:40:24;0.60;;;0.60;;
12818;SDS011;6474;53.474;9.894;2022-09-27T07:42:55;0.30;;;0.30;;
12818;SDS011;6474;53.474;9.894;2022-09-27T07:45:23;0.33;;;0.33;;
12818;SDS011;6474;53.474;9.894;2022-09-27T07:47:51;0.40;;;0.40;;
12818;SDS011;6474;53.474;9.894;2022-09-27T07:50:19;0.40;;;0.40;;
12818;SDS011;6474;53.474;9.894;2022-09-27T07:52:48;0.40;;;0.40;;
12818;SDS011;6474;53.474;9.894;2022-09-27T07:55:17;0.43;;;0.43;;
12818;SDS011;6474;53.474;9.894;2022-09-27T07:57:45;0.50;;;0.50;;
12818;SDS011;6474;53.474;9.894;2022-09-27T08:00:15;0.40;;;0.40;;
12818;SDS011;6474;53.474;9.894;2022-09-27T08:02:45;0.50;;;0.50;;
12818;SDS011;6474;53.474;9.894;2022-09-27T08:05:13;0.57;;;0.57;;
12818;SDS011;6474;53.474;9.894;2022-09-27T08:07:40;0.70;;;0.70;;
12818;SDS011;6474;53.474;9.894;2022-09-27T08:10:09;0.43;;;0.43;;
12818;SDS011;6474;53.474;9.894;2022-09-27T08:12:37;0.50;;;0.50;;
12818;SDS011;6474;53.474;9.894;2022-09-27T08:15:05;0.40;;;0.40;;
12818;SDS011;6474;53.474;9.894;2022-09-27T08:17:34;0.30;;;0.30;;
12818;SDS011;6474;53.474;9.894;2022-09-27T08:20:02;0.40;;;0.40;;
12818;SDS011;6474;53.474;9.894;2022-09-27T08:22:32;0.50;;;0.50;;
12818;SDS011;6474;53.474;9.894;2022-09-27T08:24:59;0.53;;;0.53;;
12818;SDS011;6474;53.474;9.894;2022-09-27T08:27:27;0.67;;;0.67;;
12818;SDS011;6474;53.474;9.894;2022-09-27T08:29:55;0.90;;;0.90;;
12818;SDS011;6474;53.474;9.894;2022-09-27T08:32:26;0.67;;;0.67;;
12818;SDS011;6474;53.474;9.894;2022-09-27T08:34:57;0.70;;;0.70;;
12818;SDS011;6474;53.474;9.894;2022-09-27T08:37:25;0.43;;;0.43;;
12818;SDS011;6474;53.474;9.894;2022-09-27T08:39:53;2.00;;;0.70;;
12818;SDS011;6474;53.474;9.894;2022-09-27T08:42:23;0.30;;;0.30;;
12818;SDS011;6474;53.474;9.894;2022-09-27T08:44:59;0.33;;;0.33;;
12818;SDS011;6474;53.474;9.894;2022-09-27T08:47:34;0.30;;;0.30;;
12818;SDS011;6474;53.474;9.894;2022-09-27T08:50:08;0.50;;;0.50;;
12818;SDS011;6474;53.474;9.894;2022-09-27T08:52:47;0.50;;;0.50;;
12818;SDS011;6474;53.474;9.894;2022-09-27T08:55:21;0.30;;;0.30;;
12818;SDS011;6474;53.474;9.894;2022-09-27T08:57:54;0.40;;;0.40;;
12818;SDS011;6474;53.474;9.894;2022-09-27T09:00:23;0.30;;;0.30;;
12818;SDS011;6474;53.474;9.894;2022-09-27T09:02:54;0.13;;;0.13;;
12818;SDS011;6474;53.474;9.894;2022-09-27T09:05:26;0.30;;;0.30;;
12818;SDS011;6474;53.474;9.894;2022-09-27T09:08:02;0.37;;;0.37;;
12818;SDS011;6474;53.474;9.894;2022-09-27T09:10:48;0.30;;;0.30;;
12818;SDS011;6474;53.474;9.894;2022-09-27T09:13:40;0.23;;;0.23;;
12818;SDS011;6474;53.474;9.894;2022-09-27T09:16:32;0.40;;;0.40;;
12818;SDS011;6474;53.474;9.894;2022-09-27T09:19:13;0.30;;;0.30;;
12818;SDS011;6474;53.474;9.894;2022-09-27T09:21:56;1.27;;;0.30;;
12818;SDS011;6474;53.474;9.894;2022-09-27T09:24:38;0.50;;;0.50;;
12818;SDS011;6474;53.474;9.894;2022-09-27T09:27:15;0.30;;;0.30;;
12818;SDS011;6474;53.474;9.894;2022-09-27T09:30:00;0.40;;;0.40;;
12818;SDS011;6474;53.474;9.894;2022-09-27T09:32:37;0.30;;;0.30;;
12818;SDS011;6474;53.474;9.894;2022-09-27T09:35:14;0.40;;;0.40;;
12818;SDS011;6474;53.474;9.894;2022-09-27T09:37:50;0.30;;;0.30;;
12818;SDS011;6474;53.474;9.894;2022-09-27T09:40:23;0.50;;;0.50;;
12818;SDS011;6474;53.474;9.894;2022-09-27T09:42:56;0.30;;;0.30;;
12818;SDS011;6474;53.474;9.894;2022-09-27T09:45:27;0.40;;;0.40;;
12818;SDS011;6474;53.474;9.894;2022-09-27T09:47:58;0.80;;;0.80;;
12818;SDS011;6474;53.474;9.894;2022-09-27T09:50:34;0.30;;;0.30;;
12818;SDS011;6474;53.474;9.894;2022-09-27T09:53:11;0.53;;;0.53;;
12818;SDS011;6474;53.474;9.894;2022-09-27T09:55:42;0.50;;;0.50;;
12818;SDS011;6474;53.474;9.894;2022-09-27T09:58:18;0.20;;;0.20;;
12818;SDS011;6474;53.474;9.894;2022-09-27T10:00:49;0.93;;;0.50;;
12818;SDS011;6474;53.474;9.894;2022-09-27T10:03:20;0.40;;;0.40;;
12818;SDS011;6474;53.474;9.894;2022-09-27T10:05:49;0.40;;;0.40;;
12818;SDS011;6474;53.474;9.894;2022-09-27T10:08:19;0.30;;;0.30;;
12818;SDS011;6474;53.474;9.894;2022-09-27T10:10:49;0.30;;;0.30;;
12818;SDS011;6474;53.474;9.894;2022-09-27T10:13:17;0.20;;;0.20;;
12818;SDS011;6474;53.474;9.894;2022-09-27T10:15:52;0.53;;;0.53;;
12818;SDS011;6474;53.474;9.894;2022-09-27T10:18:25;0.43;;;0.43;;
12818;SDS011;6474;53.474;9.894;2022-09-27T10:20:54;0.33;;;0.33;;
12818;SDS011;6474;53.474;9.894;2022-09-27T10:23:26;0.47;;;0.47;;
12818;SDS011;6474;53.474;9.894;2022-09-27T10:25:55;0.30;;;0.30;;
12818;SDS011;6474;53.474;9.894;2022-09-27T10:28:29;0.20;;;0.20;;
12818;SDS011;6474;53.474;9.894;2022-09-27T10:31:00;0.60;;;0.60;;
12818;SDS011;6474;53.474;9.894;2022-09-27T10:33:31;0.33;;;0.33;;
12818;SDS011;6474;53.474;9.894;2022-09-27T10:36:00;0.50;;;0.50;;
12818;SDS011;6474;53.474;9.894;2022-09-27T10:38:30;0.30;;;0.30;;
12818;SDS011;6474;53.474;9.894;2022-09-27T10:41:14;0.50;;;0.50;;
12818;SDS011;6474;53.474;9.894;2022-09-27T10:43:47;0.40;;;0.40;;
12818;SDS011;6474;53.474;9.894;2022-09-27T10:46:18;0.50;;;0.50;;
12818;SDS011;6474;53.474;9.894;2022-09-27T10:51:43;0.40;;;0.40;;
12818;SDS011;6474;53.474;9.894;2022-09-27T10:54:20;0.30;;;0.30;;
12818;SDS011;6474;53.474;9.894;2022-09-27T10:56:53;0.30;;;0.30;;
12818;SDS011;6474;53.474;9.894;2022-09-27T10:59:23;0.23;;;0.23;;
12818;SDS011;6474;53.474;9.894;2022-09-27T11:01:52;0.30;;;0.30;;
12818;SDS011;6474;53.474;9.894;2022-09-27T11:04:20;0.23;;;0.23;;
12818;SDS011;6474;53.474;9.894;2022-09-27T11:07:05;0.30;;;0.30;;
12818;SDS011;6474;53.474;9.894;2022-09-27T11:09:45;0.30;;;0.30;;
12818;SDS011;6474;53.474;9.894;2022-09-27T11:12:15;0.20;;;0.20;;
12818;SDS011;6474;53.474;9.894;2022-09-27T11:14:49;0.30;;;0.30;;
12818;SDS011;6474;53.474;9.894;2022-09-27T11:17:23;0.50;;;0.50;;
12818;SDS011;6474;53.474;9.894;2022-09-27T11:19:57;0.23;;;0.23;;
12818;SDS011;6474;53.474;9.894;2022-09-27T11:22:46;0.20;;;0.20;;
12818;SDS011;6474;53.474;9.894;2022-09-27T11:25:37;0.20;;;0.20;;
12818;SDS011;6474;53.474;9.894;2022-09-27T11:28:14;0.30;;;0.30;;
12818;SDS011;6474;53.474;9.894;2022-09-27T11:30:52;0.23;;;0.23;;
12818;SDS011;6474;53.474;9.894;2022-09-27T11:33:35;0.20;;;0.20;;
12818;SDS011;6474;53.474;9.894;2022-09-27T11:36:36;0.23;;;0.23;;
12818;SDS011;6474;53.474;9.894;2022-09-27T11:39:20;0.30;;;0.30;;
12818;SDS011;6474;53.474;9.894;2022-09-27T11:41:58;0.43;;;0.10;;
12818;SDS011;6474;53.474;9.894;2022-09-27T11:44:43;0.40;;;0.40;;
12818;SDS011;6474;53.474;9.894;2022-09-27T11:47:41;0.20;;;0.20;;
12818;SDS011;6474;53.474;9.894;2022-09-27T11:50:19;0.20;;;0.20;;
12818;SDS011;6474;53.474;9.894;2022-09-27T11:53:11;0.40;;;0.40;;
12818;SDS011;6474;53.474;9.894;2022-09-27T11:55:49;0.30;;;0.30;;
12818;SDS011;6474;53.474;9.894;2022-09-27T11:58:26;0.30;;;0.30;;
12818;SDS011;6474;53.474;9.894;2022-09-27T12:01:05;0.23;;;0.23;;
12818;SDS011;6474;53.474;9.894;2022-09-27T12:03:47;0.20;;;0.20;;
12818;SDS011;6474;53.474;9.894;2022-09-27T12:06:30;0.37;;;0.37;;
12818;SDS011;6474;53.474;9.894;2022-09-27T12:09:10;0.30;;;0.30;;
12818;SDS011;6474;53.474;9.894;2022-09-27T12:11:43;0.40;;;0.40;;
12818;SDS011;6474;53.474;9.894;2022-09-27T12:14:17;0.20;;;0.20;;
12818;SDS011;6474;53.474;9.894;2022-09-27T12:16:52;1.53;;;0.40;;
12818;SDS011;6474;53.474;9.894;2022-09-27T12:19:23;0.33;;;0.33;;
12818;SDS011;6474;53.474;9.894;2022-09-27T12:21:55;0.30;;;0.30;;
12818;SDS011;6474;53.474;9.894;2022-09-27T12:24:25;0.10;;;0.10;;
12818;SDS011;6474;53.474;9.894;2022-09-27T12:26:56;0.30;;;0.30;;
12818;SDS011;6474;53.474;9.894;2022-09-27T12:29:29;0.20;;;0.20;;
12818;SDS011;6474;53.474;9.894;2022-09-27T12:32:03;0.33;;;0.33;;
12818;SDS011;6474;53.474;9.894;2022-09-27T12:34:39;0.40;;;0.40;;
12818;SDS011;6474;53.474;9.894;2022-09-27T12:37:13;0.20;;;0.20;;
12818;SDS011;6474;53.474;9.894;2022-09-27T12:39:46;0.10;;;0.10;;
12818;SDS011;6474;53.474;9.894;2022-09-27T12:42:20;0.10;;;0.10;;
12818;SDS011;6474;53.474;9.894;2022-09-27T12:44:52;0.30;;;0.30;;
12818;SDS011;6474;53.474;9.894;2022-09-27T12:47:24;0.40;;;0.40;;
12818;SDS011;6474;53.474;9.894;2022-09-27T12:50:08;0.33;;;0.33;;
12818;SDS011;6474;53.474;9.894;2022-09-27T12:52:44;0.20;;;0.20;;
12818;SDS011;6474;53.474;9.894;2022-09-27T12:55:24;0.20;;;0.20;;
12818;SDS011;6474;53.474;9.894;2022-09-27T12:58:21;0.30;;;0.30;;
12818;SDS011;6474;53.474;9.894;2022-09-27T13:01:18;0.10;;;0.10;;
12818;SDS011;6474;53.474;9.894;2022-09-27T13:03:57;0.77;;;0.20;;
12818;SDS011;6474;53.474;9.894;2022-09-27T13:12:16;0.13;;;0.13;;
12818;SDS011;6474;53.474;9.894;2022-09-27T13:14:53;0.27;;;0.23;;
12818;SDS011;6474;53.474;9.894;2022-09-27T13:17:34;0.20;;;0.20;;
12818;SDS011;6474;53.474;9.894;2022-09-27T13:26:21;0.30;;;0.30;;
12818;SDS011;6474;53.474;9.894;2022-09-27T13:29:19;0.10;;;0.10;;
12818;SDS011;6474;53.474;9.894;2022-09-27T13:34:50;0.20;;;0.20;;
12818;SDS011;6474;53.474;9.894;2022-09-27T13:40:21;0.33;;;0.33;;
12818;SDS011;6474;53.474;9.894;2022-09-27T13:43:03;0.30;;;0.30;;
12818;SDS011;6474;53.474;9.894;2022-09-27T13:45:54;0.20;;;0.20;;
12818;SDS011;6474;53.474;9.894;2022-09-27T13:48:26;0.20;;;0.20;;
12818;SDS011;6474;53.474;9.894;2022-09-27T13:51:01;0.27;;;0.27;;
12818;SDS011;6474;53.474;9.894;2022-09-27T13:53:34;0.20;;;0.20;;
12818;SDS011;6474;53.474;9.894;2022-09-27T13:56:05;0.30;;;0.30;;
12818;SDS011;6474;53.474;9.894;2022-09-27T13:59:23;0.47;;;0.47;;
12818;SDS011;6474;53.474;9.894;2022-09-27T14:01:58;0.40;;;0.40;;
12818;SDS011;6474;53.474;9.894;2022-09-27T14:04:40;0.17;;;0.17;;
12818;SDS011;6474;53.474;9.894;2022-09-27T14:07:11;0.50;;;0.50;;
12818;SDS011;6474;53.474;9.894;2022-09-27T14:09:43;0.60;;;0.60;;
12818;SDS011;6474;53.474;9.894;2022-09-27T14:12:16;0.30;;;0.30;;
12818;SDS011;6474;53.474;9.894;2022-09-27T14:14:47;0.63;;;0.50;;
12818;SDS011;6474;53.474;9.894;2022-09-27T14:17:15;0.80;;;0.80;;
12818;SDS011;6474;53.474;9.894;2022-09-27T14:19:43;3.37;;;0.93;;
12818;SDS011;6474;53.474;9.894;2022-09-27T14:22:15;0.63;;;0.63;;
12818;SDS011;6474;53.474;9.894;2022-09-27T14:24:46;0.70;;;0.70;;
12818;SDS011;6474;53.474;9.894;2022-09-27T14:27:16;0.80;;;0.80;;
12818;SDS011;6474;53.474;9.894;2022-09-27T14:29:47;0.87;;;0.87;;
12818;SDS011;6474;53.474;9.894;2022-09-27T14:32:16;0.60;;;0.60;;
12818;SDS011;6474;53.474;9.894;2022-09-27T14:34:46;0.90;;;0.90;;
12818;SDS011;6474;53.474;9.894;2022-09-27T14:37:31;0.90;;;0.90;;
12818;SDS011;6474;53.474;9.894;2022-09-27T14:39:59;1.00;;;1.00;;
12818;SDS011;6474;53.474;9.894;2022-09-27T14:42:32;1.10;;;1.10;;
12818;SDS011;6474;53.474;9.894;2022-09-27T14:45:03;9.30;;;1.40;;
12818;SDS011;6474;53.474;9.894;2022-09-27T14:47:45;0.87;;;0.87;;
12818;SDS011;6474;53.474;9.894;2022-09-27T14:50:16;0.90;;;0.90;;
12818;SDS011;6474;53.474;9.894;2022-09-27T14:52:47;0.83;;;0.83;;
12818;SDS011;6474;53.474;9.894;2022-09-27T14:55:18;0.87;;;0.87;;
12818;SDS011;6474;53.474;9.894;2022-09-27T14:57:48;0.93;;;0.93;;
12818;SDS011;6474;53.474;9.894;2022-09-27T15:00:20;0.70;;;0.70;;
12818;SDS011;6474;53.474;9.894;2022-09-27T15:02:50;5.10;;;0.87;;
12818;SDS011;6474;53.474;9.894;2022-09-27T15:05:21;0.80;;;0.80;;
12818;SDS011;6474;53.474;9.894;2022-09-27T15:07:51;0.80;;;0.80;;
12818;SDS011;6474;53.474;9.894;2022-09-27T15:10:22;0.80;;;0.80;;
12818;SDS011;6474;53.474;9.894;2022-09-27T15:12:54;0.60;;;0.60;;
12818;SDS011;6474;53.474;9.894;2022-09-27T15:15:25;0.50;;;0.50;;
12818;SDS011;6474;53.474;9.894;2022-09-27T15:17:56;0.30;;;0.30;;
12818;SDS011;6474;53.474;9.894;2022-09-27T15:20:26;0.43;;;0.30;;
12818;SDS011;6474;53.474;9.894;2022-09-27T15:23:02;0.50;;;0.50;;
12818;SDS011;6474;53.474;9.894;2022-09-27T15:25:31;0.30;;;0.30;;
12818;SDS011;6474;53.474;9.894;2022-09-27T15:28:02;0.40;;;0.40;;
12818;SDS011;6474;53.474;9.894;2022-09-27T15:30:35;0.30;;;0.30;;
12818;SDS011;6474;53.474;9.894;2022-09-27T15:33:04;1.90;;;0.70;;
12818;SDS011;6474;53.474;9.894;2022-09-27T15:35:34;0.30;;;0.30;;
12818;SDS011;6474;53.474;9.894;2022-09-27T15:38:10;0.37;;;0.37;;
12818;SDS011;6474;53.474;9.894;2022-09-27T15:43:35;0.60;;;0.60;;
12818;SDS011;6474;53.474;9.894;2022-09-27T15:49:27;1.87;;;0.60;;
12818;SDS011;6474;53.474;9.894;2022-09-27T15:51:57;0.20;;;0.20;;
12818;SDS011;6474;53.474;9.894;2022-09-27T15:54:27;0.40;;;0.40;;
12818;SDS011;6474;53.474;9.894;2022-09-27T15:56:59;1.53;;;0.50;;
12818;SDS011;6474;53.474;9.894;2022-09-27T15:59:30;0.10;;;0.10;;
12818;SDS011;6474;53.474;9.894;2022-09-27T16:02:00;0.30;;;0.30;;
12818;SDS011;6474;53.474;9.894;2022-09-27T16:04:33;0.40;;;0.40;;